Time;durP1;ratioP1;P1;durP2;ratioP2;P2;SDS_P1;SDS_P2;PMS_P1;PMS_P2;Temp;Humidity;BMP_temperature;BMP_pressure;BME280_temperature;BME280_humidity;BME280_pressure;Samples;Min_cycle;Max_cycle;Signal;HPM_P1;HPM_P2
2021/11/25 00:04:48;;;;;;;9.98;6.12;;;2.90;99.90;;;;;;6689080;89;20230;-77
2021/11/25 00:14:48;;;;;;;11.27;6.40;;;2.90;99.90;;;;;;6690072;88;20222;-78
2021/11/25 00:24:49;;;;;;;11.60;6.22;;;2.80;99.90;;;;;;6692382;88;20392;-78
2021/11/25 00:34:49;;;;;;;12.07;6.80;;;2.70;99.90;;;;;;6691776;88;20533;-78
2021/11/25 00:44:50;;;;;;;12.57;6.62;;;2.70;99.90;;;;;;6693461;88;20196;-78
2021/11/25 00:54:50;;;;;;;12.95;6.78;;;2.60;99.90;;;;;;6692241;88;20230;-79
2021/11/25 01:04:51;;;;;;;13.05;7.47;;;2.40;99.90;;;;;;6691616;88;20210;-78
2021/11/25 01:14:52;;;;;;;11.07;6.47;;;2.50;99.90;;;;;;6687507;88;20207;-77
2021/11/25 01:24:52;;;;;;;11.43;6.75;;;2.80;99.90;;;;;;6691211;88;20521;-78
2021/11/25 01:34:55;;;;;;;11.02;6.82;;;2.80;99.90;;;;;;6691738;88;20235;-79
2021/11/25 01:44:55;;;;;;;11.35;7.10;;;2.70;99.90;;;;;;6691359;88;20189;-78
2021/11/25 01:54:56;;;;;;;11.10;6.62;;;2.90;99.90;;;;;;6690273;88;20211;-78
2021/11/25 02:04:56;;;;;;;10.07;6.72;;;3.00;99.90;;;;;;6690045;88;20210;-78
2021/11/25 02:14:58;;;;;;;10.40;6.32;;;2.90;99.90;;;;;;6690060;88;20587;-78
2021/11/25 02:24:58;;;;;;;10.48;6.37;;;2.80;99.90;;;;;;6691239;88;20225;-78
2021/11/25 02:35:00;;;;;;;12.80;6.85;;;2.90;99.90;;;;;;6690728;88;20680;-78
2021/11/25 02:45:01;;;;;;;14.13;7.45;;;2.70;99.90;;;;;;6690921;88;20202;-78
2021/11/25 02:55:01;;;;;;;15.02;8.02;;;2.70;99.90;;;;;;6695660;88;20216;-78
2021/11/25 03:05:02;;;;;;;14.15;8.18;;;2.70;99.90;;;;;;6707179;88;20200;-78
2021/11/25 03:15:03;;;;;;;14.75;8.35;;;2.70;99.90;;;;;;6706858;88;20524;-78
2021/11/25 03:25:05;;;;;;;14.65;8.13;;;2.70;99.90;;;;;;6706430;88;20201;-78
2021/11/25 03:35:07;;;;;;;16.00;8.38;;;2.80;99.90;;;;;;6707079;88;20358;-78
2021/11/25 03:45:08;;;;;;;12.18;7.40;;;2.70;99.90;;;;;;6706688;88;21009;-78
2021/11/25 03:55:11;;;;;;;14.50;7.97;;;2.80;99.90;;;;;;6705940;88;20248;-78
2021/11/25 04:05:12;;;;;;;14.90;7.62;;;2.80;99.90;;;;;;6709440;88;20247;-78
2021/11/25 04:15:15;;;;;;;14.15;7.12;;;3.00;99.90;;;;;;6709332;88;20645;-78
2021/11/25 04:25:16;;;;;;;10.88;6.90;;;3.20;99.90;;;;;;6709356;88;20203;-78
2021/11/25 04:35:33;;;;;;;14.82;7.45;;;3.00;99.90;;;;;;6708696;88;20181;-78
2021/11/25 04:45:35;;;;;;;12.35;7.72;;;3.10;99.90;;;;;;6709351;88;20199;-78
2021/11/25 04:55:36;;;;;;;13.35;8.07;;;3.00;99.90;;;;;;6710039;88;20247;-77
2021/11/25 05:05:37;;;;;;;11.65;7.53;;;3.20;99.90;;;;;;6708743;88;20202;-78
2021/11/25 05:15:38;;;;;;;14.32;7.85;;;3.00;99.90;;;;;;6707568;88;20214;-78
2021/11/25 05:25:38;;;;;;;12.68;7.85;;;3.10;99.90;;;;;;6691387;88;20191;-78
2021/11/25 05:35:39;;;;;;;12.98;7.80;;;3.10;99.90;;;;;;6689068;88;20521;-78
2021/11/25 05:45:39;;;;;;;13.77;8.60;;;3.10;99.90;;;;;;6691286;88;20707;-78
2021/11/25 05:55:40;;;;;;;16.13;8.80;;;3.10;99.90;;;;;;6690410;88;20569;-78
2021/11/25 06:05:41;;;;;;;16.48;10.43;;;3.10;99.90;;;;;;6690459;88;20588;-78
2021/11/25 06:15:41;;;;;;;21.70;11.02;;;3.00;99.90;;;;;;6673402;89;20200;-77
2021/11/25 06:25:43;;;;;;;16.75;10.50;;;2.90;99.90;;;;;;6674332;88;20257;-78
2021/11/25 06:35:44;;;;;;;15.30;9.75;;;3.00;99.90;;;;;;6690923;88;20215;-78
2021/11/25 06:45:45;;;;;;;19.70;10.90;;;3.00;99.90;;;;;;6687356;88;20578;-77
2021/11/25 06:55:45;;;;;;;17.17;10.57;;;3.00;99.90;;;;;;6687939;88;20319;-77
2021/11/25 07:05:46;;;;;;;21.20;11.02;;;3.20;99.90;;;;;;6685941;88;20690;-76
2021/11/25 07:15:47;;;;;;;19.50;11.88;;;3.30;99.90;;;;;;6685940;89;20174;-76
2021/11/25 07:25:47;;;;;;;19.05;12.30;;;3.10;99.90;;;;;;6685934;88;20655;-76
2021/11/25 07:35:48;;;;;;;21.02;12.25;;;3.20;99.90;;;;;;6685936;88;20183;-78
2021/11/25 07:45:48;;;;;;;20.58;12.13;;;3.70;99.90;;;;;;6697602;88;20195;-76
2021/11/25 07:55:49;;;;;;;20.40;11.95;;;3.80;99.90;;;;;;6685177;88;20245;-77
2021/11/25 08:05:50;;;;;;;20.30;12.18;;;3.70;99.90;;;;;;6684649;88;20206;-78
2021/11/25 08:15:51;;;;;;;21.33;11.38;;;3.80;99.90;;;;;;6684164;88;20194;-77
2021/11/25 08:25:52;;;;;;;20.23;11.75;;;4.00;99.90;;;;;;6685106;88;21104;-76
2021/11/25 08:35:52;;;;;;;21.63;13.17;;;3.90;99.90;;;;;;6685225;88;20264;-77
2021/11/25 08:45:53;;;;;;;19.53;11.67;;;3.80;99.90;;;;;;6683779;88;20501;-77
2021/11/25 08:55:54;;;;;;;18.42;11.23;;;3.90;99.90;;;;;;6686467;88;20542;-76
2021/11/25 09:05:54;;;;;;;23.30;11.77;;;3.90;99.90;;;;;;6679683;88;20249;-77
2021/11/25 09:15:55;;;;;;;22.45;11.10;;;4.10;99.90;;;;;;6682504;88;20285;-77
2021/11/25 09:25:56;;;;;;;20.45;11.70;;;4.50;99.90;;;;;;6684109;88;20619;-79
2021/11/25 09:35:57;;;;;;;20.02;11.45;;;4.40;99.90;;;;;;6683167;88;20206;-76
2021/11/25 09:45:57;;;;;;;14.77;9.20;;;4.80;99.90;;;;;;6683469;88;20220;-76
2021/11/25 09:55:59;;;;;;;16.45;9.05;;;6.30;99.90;;;;;;6682441;88;20799;-76
2021/11/25 10:06:00;;;;;;;9.80;6.53;;;6.60;99.90;;;;;;6682672;88;20323;-76
2021/11/25 10:16:01;;;;;;;5.85;3.95;;;7.20;99.90;;;;;;6682044;88;20202;-76
2021/11/25 10:26:12;;;;;;;6.37;4.28;;;7.80;99.90;;;;;;6681971;88;20254;-76
2021/11/25 10:36:26;;;;;;;7.82;4.18;;;7.70;99.90;;;;;;6684654;88;20256;-77
2021/11/25 10:56:35;;;;;;;8.35;5.47;;;9.60;99.90;;;;;;6689761;88;20239;-78
2021/11/25 11:06:38;;;;;;;9.23;4.97;;;8.80;99.90;;;;;;6706213;88;20327;-77
2021/11/25 11:17:15;;;;;;;5.75;4.00;;;8.60;99.90;;;;;;6705028;88;20202;-77
2021/11/25 11:27:05;;;;;;;7.87;4.70;;;9.40;99.90;;;;;;6704032;88;20808;-78
2021/11/25 11:37:06;;;;;;;8.93;5.40;;;8.80;99.90;;;;;;6707959;88;20207;-78
2021/11/25 11:47:10;;;;;;;11.38;6.62;;;8.60;99.90;;;;;;6704932;88;20230;-78
2021/11/25 11:57:31;;;;;;;11.55;7.70;;;8.30;99.90;;;;;;6705306;88;20762;-78
2021/11/25 12:07:32;;;;;;;15.02;8.85;;;7.80;99.90;;;;;;6703049;88;20739;-79
2021/11/25 12:17:39;;;;;;;13.10;7.62;;;7.60;99.90;;;;;;6707605;88;20344;-78
2021/11/25 12:27:41;;;;;;;12.35;7.30;;;8.50;99.90;;;;;;6710061;88;20207;-77
2021/11/25 12:37:41;;;;;;;18.48;9.20;;;7.90;99.90;;;;;;6706399;88;20568;-77
2021/11/25 12:47:42;;;;;;;14.55;8.77;;;7.80;99.90;;;;;;6704760;88;20241;-79
2021/11/25 12:57:51;;;;;;;14.05;8.50;;;7.40;99.90;;;;;;6701352;88;20239;-77
2021/11/25 13:07:51;;;;;;;14.85;8.90;;;7.50;99.90;;;;;;6707812;88;20214;-78
2021/11/25 13:17:57;;;;;;;15.43;9.15;;;7.40;99.90;;;;;;6700570;88;20710;-78
2021/11/25 13:27:57;;;;;;;15.97;9.13;;;7.40;99.90;;;;;;6707072;88;20209;-78
2021/11/25 13:37:59;;;;;;;16.48;9.50;;;7.20;99.90;;;;;;6706521;88;20182;-78
2021/11/25 13:48:00;;;;;;;16.48;8.75;;;7.00;99.90;;;;;;6703767;88;20227;-78
2021/11/25 13:58:01;;;;;;;15.43;8.52;;;7.10;99.90;;;;;;6703725;88;20362;-77
2021/11/25 14:08:08;;;;;;;13.18;7.93;;;7.00;99.90;;;;;;6705789;88;20271;-77
2021/11/25 14:18:12;;;;;;;13.45;7.80;;;6.70;99.90;;;;;;6704998;88;20725;-77
2021/11/25 14:38:36;;;;;;;13.65;7.75;;;6.60;99.90;;;;;;6707667;88;20163;-78
2021/11/25 14:48:39;;;;;;;18.85;8.45;;;6.30;99.90;;;;;;6710710;88;20573;-78
2021/11/25 14:59:13;;;;;;;16.33;8.50;;;6.20;99.90;;;;;;6710151;88;20199;-78
2021/11/25 15:09:16;;;;;;;17.50;9.50;;;6.20;99.90;;;;;;6716771;88;20232;-78
2021/11/25 15:19:17;;;;;;;18.73;10.00;;;6.00;99.90;;;;;;6716658;88;20191;-79
2021/11/25 15:29:17;;;;;;;18.37;9.68;;;5.60;99.90;;;;;;6715695;88;20262;-79
2021/11/25 15:39:21;;;;;;;19.90;10.48;;;5.50;99.90;;;;;;6714509;88;20202;-78
2021/11/25 15:49:21;;;;;;;21.67;11.25;;;5.60;99.90;;;;;;6704896;88;20213;-79
2021/11/25 15:59:22;;;;;;;23.85;12.37;;;5.50;99.90;;;;;;6713285;88;20195;-78
2021/11/25 16:09:23;;;;;;;23.20;12.18;;;5.50;99.90;;;;;;6712730;88;20243;-78
2021/11/25 16:19:24;;;;;;;24.65;13.00;;;5.50;99.90;;;;;;6713695;88;20219;-77
2021/11/25 16:29:25;;;;;;;22.10;11.27;;;5.50;99.90;;;;;;6712721;88;20202;-78
2021/11/25 16:39:26;;;;;;;24.23;11.65;;;5.50;99.90;;;;;;6715111;88;20509;-78
2021/11/25 16:49:31;;;;;;;23.33;11.48;;;5.40;99.90;;;;;;6708862;88;20215;-77
2021/11/25 16:59:34;;;;;;;26.07;13.10;;;5.40;99.90;;;;;;6707993;88;20191;-77
2021/11/25 17:09:35;;;;;;;31.70;14.43;;;5.40;99.90;;;;;;6704520;88;20267;-78
2021/11/25 17:19:36;;;;;;;32.00;15.02;;;5.50;99.90;;;;;;6696437;88;20193;-78
2021/11/25 17:29:36;;;;;;;34.80;16.30;;;5.40;99.90;;;;;;6689100;88;20206;-77
2021/11/25 17:39:39;;;;;;;33.08;16.15;;;5.40;99.90;;;;;;6685872;88;20252;-77
2021/11/25 17:49:40;;;;;;;35.88;17.98;;;5.40;99.90;;;;;;6692136;88;20271;-78
2021/11/25 17:59:41;;;;;;;41.75;18.27;;;5.30;99.90;;;;;;6706189;88;20282;-78
2021/11/25 18:09:42;;;;;;;41.10;19.15;;;5.30;99.90;;;;;;6709614;88;20247;-78
2021/11/25 18:19:43;;;;;;;42.30;19.40;;;5.30;99.90;;;;;;6713892;88;20750;-77
2021/11/25 18:29:45;;;;;;;42.05;19.35;;;5.30;99.90;;;;;;6701227;88;20196;-80
2021/11/25 18:39:46;;;;;;;47.10;20.00;;;5.30;99.90;;;;;;6703978;88;20260;-78
2021/11/25 18:49:50;;;;;;;43.63;19.87;;;5.30;99.90;;;;;;6715656;88;20655;-78
2021/11/25 18:59:50;;;;;;;46.47;20.52;;;5.40;99.90;;;;;;6700581;88;20233;-77
2021/11/25 19:09:51;;;;;;;46.33;20.05;;;5.40;99.90;;;;;;6706580;88;20213;-77
2021/11/25 19:19:52;;;;;;;42.28;19.62;;;5.50;99.90;;;;;;6707595;88;20676;-78
2021/11/25 19:29:53;;;;;;;43.97;19.20;;;5.50;99.90;;;;;;6703933;88;20205;-78
2021/11/25 19:39:54;;;;;;;47.00;20.23;;;5.50;99.90;;;;;;6707284;88;20227;-78
2021/11/25 19:49:57;;;;;;;42.50;19.45;;;5.60;99.90;;;;;;6705735;88;20606;-77
2021/11/25 19:59:57;;;;;;;43.55;19.42;;;5.60;99.90;;;;;;6709566;88;20325;-78
2021/11/25 20:09:58;;;;;;;45.97;19.62;;;5.60;99.90;;;;;;6713018;88;20211;-77
2021/11/25 20:19:58;;;;;;;46.67;19.65;;;5.70;99.90;;;;;;6696660;88;20230;-77
2021/11/25 20:29:59;;;;;;;57.72;21.12;;;5.50;99.90;;;;;;6707239;88;20317;-77
2021/11/25 20:39:59;;;;;;;58.80;22.23;;;5.40;99.90;;;;;;6712659;88;20267;-77
2021/11/25 20:50:01;;;;;;;53.25;21.25;;;5.50;99.90;;;;;;6711893;88;21037;-77
2021/11/25 21:00:06;;;;;;;49.97;20.10;;;5.40;99.90;;;;;;6712197;88;20630;-77
2021/11/25 21:10:09;;;;;;;56.13;20.90;;;5.30;99.90;;;;;;6710610;88;21029;-77
2021/11/25 21:20:10;;;;;;;59.28;22.10;;;5.40;99.90;;;;;;6700005;88;20223;-77
2021/11/25 21:30:13;;;;;;;56.17;20.67;;;5.20;99.90;;;;;;6694586;88;20214;-77
2021/11/25 21:40:20;;;;;;;56.53;21.05;;;5.10;99.90;;;;;;6695455;88;20233;-77
2021/11/25 21:50:23;;;;;;;52.75;20.95;;;4.90;99.90;;;;;;6689493;88;20227;-77
2021/11/25 22:00:24;;;;;;;52.03;19.50;;;4.80;99.90;;;;;;6703285;88;20319;-76
2021/11/25 22:10:30;;;;;;;55.53;20.37;;;4.90;99.90;;;;;;6710500;88;20215;-77
2021/11/25 22:20:33;;;;;;;59.47;20.17;;;4.80;99.90;;;;;;6698904;88;20270;-77
2021/11/25 22:30:34;;;;;;;57.40;20.20;;;4.80;99.90;;;;;;6701802;88;20656;-76
2021/11/25 22:40:35;;;;;;;56.53;20.12;;;4.80;99.90;;;;;;6702759;88;20223;-77
2021/11/25 22:50:35;;;;;;;62.60;20.62;;;4.80;99.90;;;;;;6706318;88;20193;-78
2021/11/25 23:00:42;;;;;;;59.03;21.05;;;4.70;99.90;;;;;;6694897;88;20287;-78
2021/11/25 23:10:48;;;;;;;64.00;20.48;;;4.70;99.90;;;;;;6701017;88;20194;-78
2021/11/25 23:20:49;;;;;;;48.63;18.60;;;4.80;99.90;;;;;;6694897;88;20182;-78
2021/11/25 23:30:50;;;;;;;55.90;18.58;;;4.80;99.90;;;;;;6707271;88;20286;-78
2021/11/25 23:40:51;;;;;;;50.67;18.60;;;4.90;99.90;;;;;;6697010;88;20186;-79
2021/11/25 23:50:57;;;;;;;47.67;17.50;;;4.90;99.90;;;;;;6705808;88;20240;-78
